MSC Divina — 3FFA5 — position and weather

sailwx.info

Track history (hours):
 
Tides and Currents Weather Stations Pressure Air Temp Water Temp Dewpoint Dewpoint Depression Visibility Wind Speed Wind Dir Waves Ship Positions

MSC Divina

Last reported at 2017-Apr-29 18:57 UTC. Time now 2017-Apr-29 19:26 UTC.
Position N 25°47' W 080°10'.

Length 333 m; draft 8.6 m.

Type: Passenger vessel. MMSI: 373178000.

Date/timePositionNaut miles runAvg speedWind from/ knotsBaromVisibWave heightAir tempDewpointWater temp
2017-Apr-29 18:57N 25°47' W 080°10'0 0.0
2017-Apr-29 18:30N 25°47' W 080°10'0 0.0
2017-Apr-29 18:00N 25°47' W 080°10'0 0.0
2017-Apr-29 17:30N 25°47' W 080°10'0 0.0
2017-Apr-29 17:00N 25°47' W 080°10'0 0.0
2017-Apr-29 16:27N 25°47' W 080°10'0 0.0
2017-Apr-29 15:57N 25°47' W 080°10'0 0.0
2017-Apr-29 15:30N 25°47' W 080°10'0 0.0
2017-Apr-29 15:00N 25°47' W 080°10'0 0.0
2017-Apr-29 13:57N 25°47' W 080°10'0 0.0
2017-Apr-29 13:27N 25°47' W 080°10'0 0.0
2017-Apr-29 13:00N 25°47' W 080°10'0 0.0
2017-Apr-29 12:30N 25°47' W 080°10'0 0.0
2017-Apr-29 12:00N 25°47' W 080°10'0 0.0
2017-Apr-29 11:30N 25°47' W 080°10'0 0.0
2017-Apr-29 11:00N 25°47' W 080°10'0 0.0
2017-Apr-29 10:30N 25°47' W 080°10'0 0.1
2017-Apr-29 10:01N 25°47' W 080°10'0 0.6
2017-Apr-29 09:30N 25°47' W 080°10'4 8.2
2017-Apr-29 09:01N 25°46' W 080°06'5 9.3
2017-Apr-29 08:30N 25°48' W 080°01'612.1
2017-Apr-29 08:01N 25°50' W 079°55'917.5
2017-Apr-29 07:31N 25°54' W 079°46'816.4
2017-Apr-29 07:00N 25°58' W 079°38'714.4
2017-Apr-29 06:30N 26°01' W 079°31'1014.6
2017-Apr-29 05:51N 26°04' W 079°21'10 0.4
2017-Apr-28 03:48N 25°54' W 079°19'414.4
2017-Apr-28 03:30N 25°50' W 079°21'714.9
2017-Apr-28 03:01N 25°43' W 079°24'815.6
2017-Apr-28 02:31N 25°36' W 079°27'816.0
2017-Apr-28 02:01N 25°29' W 079°30'815.7
2017-Apr-28 01:30N 25°21' W 079°32'815.7
2017-Apr-28 01:00N 25°13' W 079°35'816.1
2017-Apr-28 00:31N 25°06' W 079°37'816.5
2017-Apr-28 00:00N 24°58' W 079°40'816.0
2017-Apr-27 23:30N 24°51' W 079°44'46819.7
2017-Apr-26 23:46N 20°40' W 086°53'623.5
2017-Apr-26 23:31N 20°36' W 086°56'5 9.5
2017-Apr-26 22:58N 20°31' W 086°57'0 0.0
2017-Apr-26 22:31N 20°31' W 086°57'0 0.0
2017-Apr-26 21:58N 20°31' W 086°57'0 0.0
2017-Apr-26 21:28N 20°31' W 086°57'0 0.0
2017-Apr-26 20:58N 20°31' W 086°57'0 0.0
2017-Apr-26 20:28N 20°31' W 086°57'0 0.0
2017-Apr-26 19:58N 20°31' W 086°57'0 0.0
2017-Apr-26 19:28N 20°31' W 086°57'0 0.0
2017-Apr-26 18:58N 20°31' W 086°57'0 0.0
2017-Apr-26 18:30N 20°31' W 086°57'0 0.0
2017-Apr-26 17:59N 20°31' W 086°57'0 0.0
2017-Apr-26 17:29N 20°31' W 086°57'0 0.0
2017-Apr-26 16:59N 20°31' W 086°57'0 0.0
2017-Apr-26 16:29N 20°31' W 086°57'0 0.0
2017-Apr-26 15:59N 20°31' W 086°57'0 0.0
2017-Apr-26 15:29N 20°31' W 086°57'0 0.0
2017-Apr-26 14:59N 20°31' W 086°57'0 0.0
2017-Apr-26 14:30N 20°31' W 086°57'10 9.9
2017-Apr-26 13:30N 20°39' W 086°51'  
2017-Apr-23 01:46N 25°17' W 079°53'517.6
2017-Apr-23 01:30N 25°21' W 079°55'917.3
2017-Apr-23 01:01N 25°29' W 079°58'917.4
2017-Apr-23 00:31N 25°37' W 080°02'917.2
2017-Apr-23 00:01N 25°46' W 080°04'5 9.3
2017-Apr-22 23:30N 25°46' W 080°09'1 1.5
2017-Apr-22 22:55N 25°47' W 080°10'0 0.0
2017-Apr-22 22:25N 25°47' W 080°10'0 0.0
2017-Apr-22 21:58N 25°47' W 080°10'0 0.0
2017-Apr-22 21:28N 25°47' W 080°10'0 0.0
2017-Apr-22 20:58N 25°47' W 080°10'0 0.0
2017-Apr-22 20:28N 25°47' W 080°10'0 0.0
2017-Apr-22 19:58N 25°47' W 080°10'0 0.0
2017-Apr-22 19:28N 25°47' W 080°10'0 0.0
2017-Apr-22 18:58N 25°47' W 080°10'0 0.0
2017-Apr-22 18:28N 25°47' W 080°10'0 0.0
2017-Apr-22 17:58N 25°47' W 080°10'0 0.0
2017-Apr-22 17:28N 25°47' W 080°10'0 0.0
2017-Apr-22 16:54N 25°47' W 080°10'0 0.0
2017-Apr-22 16:30N 25°47' W 080°10'0 0.0
2017-Apr-22 16:00N 25°47' W 080°10'0 0.0
2017-Apr-22 15:27N 25°47' W 080°10'0 0.0
2017-Apr-22 15:00N 25°47' W 080°10'0 0.0
2017-Apr-22 14:27N 25°47' W 080°10'0 0.0
2017-Apr-22 13:30N 25°47' W 080°10'0 0.0
2017-Apr-22 12:57N 25°47' W 080°10'0 0.0
2017-Apr-22 12:27N 25°47' W 080°10'0 0.0
2017-Apr-22 12:00N 25°47' W 080°10'0 0.0
2017-Apr-22 11:30N 25°47' W 080°10'0 0.0
2017-Apr-22 11:00N 25°47' W 080°10'0 0.0
2017-Apr-22 10:30N 25°47' W 080°10'0 0.0
2017-Apr-22 09:59N 25°47' W 080°10'0 0.8
2017-Apr-22 09:30N 25°47' W 080°11'2 3.8
2017-Apr-22 09:01N 25°46' W 080°09'611.3
2017-Apr-22 08:30N 25°46' W 080°03'612.5
2017-Apr-22 08:00N 25°49' W 079°57'816.3
2017-Apr-22 07:31N 25°53' W 079°48'817.0
2017-Apr-22 07:01N 25°56' W 079°40'714.5
2017-Apr-22 06:31N 25°60' W 079°33'714.5
2017-Apr-22 06:00N 26°03' W 079°26'94218.3
2017-Apr-20 02:36N 18°52' W 064°19'5521.1
2017-Apr-19 23:59N 18°18' W 063°34'1121.2
2017-Apr-19 23:27N 18°11' W 063°24'1021.4
2017-Apr-19 22:59N 18°05' W 063°16'1020.6
2017-Apr-19 22:31N 18°00' W 063°07'4 6.8
2017-Apr-19 21:56N 18°01' W 063°03'0 0.0
2017-Apr-19 21:29N 18°01' W 063°03'0 0.0
2017-Apr-19 20:53N 18°01' W 063°03'0 0.0
2017-Apr-19 20:22N 18°01' W 063°03'0 0.0
2017-Apr-19 19:55N 18°01' W 063°03'0 0.0
2017-Apr-19 19:28N 18°01' W 063°03'0 0.0
2017-Apr-19 18:58N 18°01' W 063°03'  
Track history (hours):
 
Tides and Currents Weather Stations Pressure Air Temp Water Temp Dewpoint Dewpoint Depression Visibility Wind Speed Wind Dir Waves Ship Positions

MSC Divina

Last reported at 2017-Apr-29 18:57 UTC. Time now 2017-Apr-29 19:26 UTC.
Position N 25°47' W 080°10'.

Length 333 m; draft 8.6 m.

Type: Passenger vessel. MMSI: 373178000.

Date/timePositionNaut miles runAvg speedWind from/ knotsBaromVisibWave heightAir tempDewpointWater temp
2017-Apr-29 18:57N 25°47' W 080°10'0 0.0
2017-Apr-29 18:30N 25°47' W 080°10'0 0.0
2017-Apr-29 18:00N 25°47' W 080°10'0 0.0
2017-Apr-29 17:30N 25°47' W 080°10'0 0.0
2017-Apr-29 17:00N 25°47' W 080°10'0 0.0
2017-Apr-29 16:27N 25°47' W 080°10'0 0.0
2017-Apr-29 15:57N 25°47' W 080°10'0 0.0
2017-Apr-29 15:30N 25°47' W 080°10'0 0.0
2017-Apr-29 15:00N 25°47' W 080°10'0 0.0
2017-Apr-29 13:57N 25°47' W 080°10'0 0.0
2017-Apr-29 13:27N 25°47' W 080°10'0 0.0
2017-Apr-29 13:00N 25°47' W 080°10'0 0.0
2017-Apr-29 12:30N 25°47' W 080°10'0 0.0
2017-Apr-29 12:00N 25°47' W 080°10'0 0.0
2017-Apr-29 11:30N 25°47' W 080°10'0 0.0
2017-Apr-29 11:00N 25°47' W 080°10'0 0.0
2017-Apr-29 10:30N 25°47' W 080°10'0 0.1
2017-Apr-29 10:01N 25°47' W 080°10'0 0.6
2017-Apr-29 09:30N 25°47' W 080°10'4 8.2
2017-Apr-29 09:01N 25°46' W 080°06'5 9.3
2017-Apr-29 08:30N 25°48' W 080°01'612.1
2017-Apr-29 08:01N 25°50' W 079°55'917.5
2017-Apr-29 07:31N 25°54' W 079°46'816.4
2017-Apr-29 07:00N 25°58' W 079°38'714.4
2017-Apr-29 06:30N 26°01' W 079°31'1014.6
2017-Apr-29 05:51N 26°04' W 079°21'10 0.4
2017-Apr-28 03:48N 25°54' W 079°19'414.4
2017-Apr-28 03:30N 25°50' W 079°21'714.9
2017-Apr-28 03:01N 25°43' W 079°24'815.6
2017-Apr-28 02:31N 25°36' W 079°27'816.0
2017-Apr-28 02:01N 25°29' W 079°30'815.7
2017-Apr-28 01:30N 25°21' W 079°32'815.7
2017-Apr-28 01:00N 25°13' W 079°35'816.1
2017-Apr-28 00:31N 25°06' W 079°37'816.5
2017-Apr-28 00:00N 24°58' W 079°40'816.0
2017-Apr-27 23:30N 24°51' W 079°44'46819.7
2017-Apr-26 23:46N 20°40' W 086°53'623.5
2017-Apr-26 23:31N 20°36' W 086°56'5 9.5
2017-Apr-26 22:58N 20°31' W 086°57'0 0.0
2017-Apr-26 22:31N 20°31' W 086°57'0 0.0
2017-Apr-26 21:58N 20°31' W 086°57'0 0.0
2017-Apr-26 21:28N 20°31' W 086°57'0 0.0
2017-Apr-26 20:58N 20°31' W 086°57'0 0.0
2017-Apr-26 20:28N 20°31' W 086°57'0 0.0
2017-Apr-26 19:58N 20°31' W 086°57'0 0.0
2017-Apr-26 19:28N 20°31' W 086°57'0 0.0
2017-Apr-26 18:58N 20°31' W 086°57'0 0.0
2017-Apr-26 18:30N 20°31' W 086°57'0 0.0
2017-Apr-26 17:59N 20°31' W 086°57'0 0.0
2017-Apr-26 17:29N 20°31' W 086°57'0 0.0
2017-Apr-26 16:59N 20°31' W 086°57'0 0.0
2017-Apr-26 16:29N 20°31' W 086°57'0 0.0
2017-Apr-26 15:59N 20°31' W 086°57'0 0.0
2017-Apr-26 15:29N 20°31' W 086°57'0 0.0
2017-Apr-26 14:59N 20°31' W 086°57'0 0.0
2017-Apr-26 14:30N 20°31' W 086°57'10 9.9
2017-Apr-26 13:30N 20°39' W 086°51'  
2017-Apr-23 01:46N 25°17' W 079°53'517.6
2017-Apr-23 01:30N 25°21' W 079°55'917.3
2017-Apr-23 01:01N 25°29' W 079°58'917.4
2017-Apr-23 00:31N 25°37' W 080°02'917.2
2017-Apr-23 00:01N 25°46' W 080°04'5 9.3
2017-Apr-22 23:30N 25°46' W 080°09'1 1.5
2017-Apr-22 22:55N 25°47' W 080°10'0 0.0
2017-Apr-22 22:25N 25°47' W 080°10'0 0.0
2017-Apr-22 21:58N 25°47' W 080°10'0 0.0
2017-Apr-22 21:28N 25°47' W 080°10'0 0.0
2017-Apr-22 20:58N 25°47' W 080°10'0 0.0
2017-Apr-22 20:28N 25°47' W 080°10'0 0.0
2017-Apr-22 19:58N 25°47' W 080°10'0 0.0
2017-Apr-22 19:28N 25°47' W 080°10'0 0.0
2017-Apr-22 18:58N 25°47' W 080°10'0 0.0
2017-Apr-22 18:28N 25°47' W 080°10'0 0.0
2017-Apr-22 17:58N 25°47' W 080°10'0 0.0
2017-Apr-22 17:28N 25°47' W 080°10'0 0.0
2017-Apr-22 16:54N 25°47' W 080°10'0 0.0
2017-Apr-22 16:30N 25°47' W 080°10'0 0.0
2017-Apr-22 16:00N 25°47' W 080°10'0 0.0
2017-Apr-22 15:27N 25°47' W 080°10'0 0.0
2017-Apr-22 15:00N 25°47' W 080°10'0 0.0
2017-Apr-22 14:27N 25°47' W 080°10'0 0.0
2017-Apr-22 13:30N 25°47' W 080°10'0 0.0
2017-Apr-22 12:57N 25°47' W 080°10'0 0.0
2017-Apr-22 12:27N 25°47' W 080°10'0 0.0
2017-Apr-22 12:00N 25°47' W 080°10'0 0.0
2017-Apr-22 11:30N 25°47' W 080°10'0 0.0
2017-Apr-22 11:00N 25°47' W 080°10'0 0.0
2017-Apr-22 10:30N 25°47' W 080°10'0 0.0
2017-Apr-22 09:59N 25°47' W 080°10'0 0.8
2017-Apr-22 09:30N 25°47' W 080°11'2 3.8
2017-Apr-22 09:01N 25°46' W 080°09'611.3
2017-Apr-22 08:30N 25°46' W 080°03'612.5
2017-Apr-22 08:00N 25°49' W 079°57'816.3
2017-Apr-22 07:31N 25°53' W 079°48'817.0
2017-Apr-22 07:01N 25°56' W 079°40'714.5
2017-Apr-22 06:31N 25°60' W 079°33'714.5
2017-Apr-22 06:00N 26°03' W 079°26'94218.3
2017-Apr-20 02:36N 18°52' W 064°19'5521.1
2017-Apr-19 23:59N 18°18' W 063°34'1121.2
2017-Apr-19 23:27N 18°11' W 063°24'1021.4
2017-Apr-19 22:59N 18°05' W 063°16'1020.6
2017-Apr-19 22:31N 18°00' W 063°07'4 6.8
2017-Apr-19 21:56N 18°01' W 063°03'0 0.0
2017-Apr-19 21:29N 18°01' W 063°03'0 0.0
2017-Apr-19 20:53N 18°01' W 063°03'0 0.0
2017-Apr-19 20:22N 18°01' W 063°03'0 0.0
2017-Apr-19 19:55N 18°01' W 063°03'0 0.0
2017-Apr-19 19:28N 18°01' W 063°03'0 0.0
2017-Apr-19 18:58N 18°01' W 063°03'  

Dump ship's entire track history